createdAt,value
2023-05-11T00:03:43.306Z,33.28
2023-05-11T00:13:45.448Z,32.90
2023-05-11T00:23:47.040Z,40.03
2023-05-11T00:33:48.439Z,37.75
2023-05-11T00:43:49.983Z,38.30
2023-05-11T00:53:51.546Z,36.53
2023-05-11T01:03:53.071Z,38.40
2023-05-11T01:14:06.466Z,39.70
2023-05-11T01:24:37.403Z,38.90
2023-05-11T01:34:40.791Z,41.83
2023-05-11T01:44:45.885Z,42.95
2023-05-11T01:54:49.972Z,41.10
2023-05-11T02:04:51.655Z,39.60
2023-05-11T02:14:54.031Z,39.97
2023-05-11T02:24:55.581Z,44.83
2023-05-11T02:35:16.293Z,45.47
2023-05-11T02:45:19.491Z,43.60
2023-05-11T02:55:22.297Z,45.75
2023-05-11T03:05:24.264Z,37.97
2023-05-11T03:15:26.937Z,31.67
2023-05-11T03:25:29.173Z,35.60
2023-05-11T03:35:34.681Z,33.33
2023-05-11T03:45:37.453Z,34.50
2023-05-11T03:55:38.819Z,30.75
2023-05-11T04:05:41.254Z,28.67
2023-05-11T04:15:42.697Z,29.03
2023-05-11T04:25:44.096Z,30.60
2023-05-11T04:35:45.637Z,36.40
2023-05-11T04:45:50.983Z,33.97
2023-05-11T04:55:52.653Z,34.97
2023-05-11T05:05:54.103Z,38.75
2023-05-11T05:15:55.547Z,36.50
2023-05-11T05:25:56.929Z,41.20
2023-05-11T05:35:58.296Z,38.17
2023-05-11T05:45:59.848Z,33.85
2023-05-11T05:56:01.400Z,37.80
2023-05-11T06:06:02.844Z,38.27
2023-05-11T06:16:04.530Z,38.13
2023-05-11T06:26:06.089Z,48.57
2023-05-11T06:36:07.824Z,38.75
2023-05-11T06:46:10.068Z,44.43
2023-05-11T06:56:11.657Z,38.90
2023-05-11T07:06:13.035Z,37.35
2023-05-11T07:16:14.454Z,33.67
2023-05-11T07:26:16.348Z,29.23
2023-05-11T07:36:18.455Z,35.72
2023-05-11T07:46:19.990Z,42.88
2023-05-11T07:56:21.511Z,31.10
2023-05-11T08:06:22.970Z,30.77
2023-05-11T08:16:24.457Z,28.70
2023-05-11T08:26:25.835Z,28.80
2023-05-11T08:36:27.347Z,22.73
2023-05-11T08:46:30.357Z,22.73
2023-05-11T08:56:32.502Z,25.03
2023-05-11T09:06:34.352Z,22.20
2023-05-11T09:16:37.648Z,34.53
2023-05-11T09:26:39.640Z,26.98
2023-05-11T09:36:46.355Z,26.90
2023-05-11T09:46:48.542Z,28.70
2023-05-11T09:56:54.362Z,30.58
2023-05-11T10:06:56.318Z,29.30
2023-05-11T10:16:58.499Z,29.37
2023-05-11T10:27:01.525Z,29.23
2023-05-11T10:37:03.141Z,30.30
2023-05-11T10:47:20.694Z,32.00
2023-05-11T10:57:47.897Z,28.60
2023-05-11T11:08:07.376Z,28.60
2023-05-11T11:18:25.089Z,30.27
2023-05-11T11:28:26.751Z,39.60
2023-05-11T11:38:29.722Z,35.17
2023-05-11T11:48:40.403Z,32.87
2023-05-11T11:58:41.896Z,34.37
2023-05-11T12:08:43.262Z,35.40
2023-05-11T12:18:53.474Z,33.43
2023-05-11T12:29:15.941Z,34.53
2023-05-11T12:39:26.346Z,33.72
2023-05-11T12:49:28.149Z,29.13
2023-05-11T12:59:36.211Z,29.17
2023-05-11T13:09:38.092Z,28.33
2023-05-11T13:19:39.672Z,29.42
2023-05-11T13:29:41.110Z,29.70
2023-05-11T13:39:42.581Z,28.70
2023-05-11T13:49:44.302Z,27.77
2023-05-11T13:59:45.922Z,27.67
2023-05-11T14:09:48.738Z,26.10
2023-05-11T14:19:50.271Z,26.13
2023-05-11T14:29:52.202Z,9.85
2023-05-11T14:39:53.817Z,7.87
2023-05-11T14:49:55.241Z,6.43
2023-05-11T15:00:00.092Z,7.28
2023-05-11T15:10:02.289Z,6.33
2023-05-11T15:20:04.151Z,6.03
2023-05-11T15:30:06.145Z,6.57
2023-05-11T15:40:08.654Z,6.73
2023-05-11T15:50:10.231Z,7.93
2023-05-11T16:00:12.765Z,7.93
2023-05-11T16:10:14.177Z,6.93
2023-05-11T16:20:15.610Z,6.53
2023-05-11T16:30:24.554Z,7.07
2023-05-11T16:40:26.988Z,6.25
2023-05-11T16:50:28.451Z,6.33
2023-05-11T17:00:30.539Z,7.03
2023-05-11T17:10:33.671Z,6.60
2023-05-11T17:20:35.125Z,6.03
2023-05-11T17:30:48.273Z,6.87
2023-05-11T17:40:50.326Z,6.65
2023-05-11T17:50:51.748Z,6.57
2023-05-11T18:00:53.756Z,7.57
2023-05-11T18:10:55.544Z,7.73
2023-05-11T18:20:57.456Z,8.27
2023-05-11T18:30:58.940Z,7.80
2023-05-11T18:41:05.061Z,10.27
2023-05-11T18:51:06.808Z,10.35
2023-05-11T19:01:09.255Z,9.03
2023-05-11T19:11:11.151Z,10.80
2023-05-11T19:21:12.709Z,9.50
2023-05-11T19:31:14.214Z,9.10
2023-05-11T19:41:16.447Z,11.17
2023-05-11T19:51:18.605Z,10.57
2023-05-11T20:01:19.982Z,11.93
2023-05-11T20:11:21.977Z,11.53
2023-05-11T20:21:23.382Z,12.03
2023-05-11T20:31:26.465Z,13.50
2023-05-11T20:41:28.818Z,11.70
2023-05-11T20:51:30.157Z,16.77
2023-05-11T21:01:31.688Z,15.20
2023-05-11T21:11:33.082Z,16.05
2023-05-11T21:21:34.427Z,18.97
2023-05-11T21:31:35.908Z,17.70
2023-05-11T21:41:37.289Z,21.77
2023-05-11T21:51:38.899Z,20.17
2023-05-11T22:01:40.314Z,25.03
2023-05-11T22:11:41.683Z,22.98
2023-05-11T22:21:43.164Z,23.60
2023-05-11T22:31:46.186Z,20.53
2023-05-11T22:41:47.810Z,23.42
2023-05-11T22:51:49.207Z,21.92
2023-05-11T23:01:50.775Z,24.43
2023-05-11T23:11:52.420Z,21.87
2023-05-11T23:21:54.005Z,19.95
2023-05-11T23:31:55.924Z,21.17
2023-05-11T23:41:57.307Z,19.07
2023-05-11T23:51:58.651Z,14.75
